sensor_id;sensor_type;location;lat;lon;timestamp;P1;durP1;ratioP1;P2;durP2;ratioP2
31782;SDS011;18351;47.560;9.708;2023-08-24T00:01:02;14.05;;;11.20;;
31782;SDS011;18351;47.560;9.708;2023-08-24T00:03:28;19.25;;;11.68;;
31782;SDS011;18351;47.560;9.708;2023-08-24T00:05:54;15.52;;;11.82;;
31782;SDS011;18351;47.560;9.708;2023-08-24T00:08:20;14.30;;;11.68;;
31782;SDS011;18351;47.560;9.708;2023-08-24T00:10:45;16.63;;;12.95;;
31782;SDS011;18351;47.560;9.708;2023-08-24T00:13:14;19.40;;;12.70;;
31782;SDS011;18351;47.560;9.708;2023-08-24T00:15:40;16.63;;;12.90;;
31782;SDS011;18351;47.560;9.708;2023-08-24T00:18:06;17.77;;;13.27;;
31782;SDS011;18351;47.560;9.708;2023-08-24T00:20:32;14.35;;;12.13;;
31782;SDS011;18351;47.560;9.708;2023-08-24T00:22:58;14.35;;;12.30;;
31782;SDS011;18351;47.560;9.708;2023-08-24T00:25:24;15.85;;;11.55;;
31782;SDS011;18351;47.560;9.708;2023-08-24T00:27:50;15.27;;;12.48;;
31782;SDS011;18351;47.560;9.708;2023-08-24T00:30:19;19.33;;;13.90;;
31782;SDS011;18351;47.560;9.708;2023-08-24T00:32:45;15.05;;;12.80;;
31782;SDS011;18351;47.560;9.708;2023-08-24T00:35:10;25.77;;;14.23;;
31782;SDS011;18351;47.560;9.708;2023-08-24T00:37:37;15.68;;;13.18;;
31782;SDS011;18351;47.560;9.708;2023-08-24T00:40:03;16.80;;;13.68;;
31782;SDS011;18351;47.560;9.708;2023-08-24T00:42:36;17.25;;;13.90;;
31782;SDS011;18351;47.560;9.708;2023-08-24T00:45:06;18.73;;;14.05;;
31782;SDS011;18351;47.560;9.708;2023-08-24T00:47:32;18.92;;;13.27;;
31782;SDS011;18351;47.560;9.708;2023-08-24T00:49:59;18.42;;;12.38;;
31782;SDS011;18351;47.560;9.708;2023-08-24T00:52:25;20.88;;;14.02;;
31782;SDS011;18351;47.560;9.708;2023-08-24T00:54:54;19.00;;;13.00;;
31782;SDS011;18351;47.560;9.708;2023-08-24T00:57:20;20.60;;;14.20;;
31782;SDS011;18351;47.560;9.708;2023-08-24T00:59:46;16.65;;;12.50;;
31782;SDS011;18351;47.560;9.708;2023-08-24T01:02:13;16.63;;;13.00;;
31782;SDS011;18351;47.560;9.708;2023-08-24T01:04:40;16.80;;;13.07;;
31782;SDS011;18351;47.560;9.708;2023-08-24T01:07:06;18.02;;;13.13;;
31782;SDS011;18351;47.560;9.708;2023-08-24T01:09:33;17.77;;;14.32;;
31782;SDS011;18351;47.560;9.708;2023-08-24T01:12:04;15.65;;;13.35;;
31782;SDS011;18351;47.560;9.708;2023-08-24T01:15:01;18.35;;;13.18;;
31782;SDS011;18351;47.560;9.708;2023-08-24T01:17:34;17.42;;;13.07;;
31782;SDS011;18351;47.560;9.708;2023-08-24T01:20:03;19.13;;;13.30;;
31782;SDS011;18351;47.560;9.708;2023-08-24T01:27:49;17.85;;;13.20;;
31782;SDS011;18351;47.560;9.708;2023-08-24T01:30:17;16.50;;;12.50;;
31782;SDS011;18351;47.560;9.708;2023-08-24T01:32:43;23.15;;;13.73;;
31782;SDS011;18351;47.560;9.708;2023-08-24T01:35:09;23.30;;;13.60;;
31782;SDS011;18351;47.560;9.708;2023-08-24T01:37:35;25.15;;;14.32;;
31782;SDS011;18351;47.560;9.708;2023-08-24T01:40:08;18.35;;;13.13;;
31782;SDS011;18351;47.560;9.708;2023-08-24T01:45:17;15.10;;;12.35;;
31782;SDS011;18351;47.560;9.708;2023-08-24T01:47:45;17.63;;;12.43;;
31782;SDS011;18351;47.560;9.708;2023-08-24T01:50:13;14.95;;;11.43;;
31782;SDS011;18351;47.560;9.708;2023-08-24T01:52:39;15.43;;;11.98;;
31782;SDS011;18351;47.560;9.708;2023-08-24T01:55:06;14.80;;;12.05;;
31782;SDS011;18351;47.560;9.708;2023-08-24T01:57:32;16.80;;;11.80;;
31782;SDS011;18351;47.560;9.708;2023-08-24T01:59:58;14.73;;;13.02;;
31782;SDS011;18351;47.560;9.708;2023-08-24T02:02:23;17.80;;;12.57;;
31782;SDS011;18351;47.560;9.708;2023-08-24T02:04:49;15.15;;;12.25;;
31782;SDS011;18351;47.560;9.708;2023-08-24T02:07:15;14.40;;;11.80;;
31782;SDS011;18351;47.560;9.708;2023-08-24T02:09:41;18.63;;;11.68;;
31782;SDS011;18351;47.560;9.708;2023-08-24T02:12:06;13.55;;;11.57;;
31782;SDS011;18351;47.560;9.708;2023-08-24T02:14:32;19.42;;;12.63;;
31782;SDS011;18351;47.560;9.708;2023-08-24T02:16:58;19.60;;;13.05;;
31782;SDS011;18351;47.560;9.708;2023-08-24T02:19:23;16.20;;;12.48;;
31782;SDS011;18351;47.560;9.708;2023-08-24T02:21:49;18.52;;;13.82;;
31782;SDS011;18351;47.560;9.708;2023-08-24T02:24:14;19.65;;;12.10;;
31782;SDS011;18351;47.560;9.708;2023-08-24T02:26:40;23.38;;;12.80;;
31782;SDS011;18351;47.560;9.708;2023-08-24T02:29:05;15.02;;;12.15;;
31782;SDS011;18351;47.560;9.708;2023-08-24T02:31:31;15.85;;;11.88;;
31782;SDS011;18351;47.560;9.708;2023-08-24T02:33:57;19.60;;;13.45;;
31782;SDS011;18351;47.560;9.708;2023-08-24T02:36:22;24.83;;;14.13;;
31782;SDS011;18351;47.560;9.708;2023-08-24T02:38:48;19.67;;;12.90;;
31782;SDS011;18351;47.560;9.708;2023-08-24T02:41:13;16.10;;;13.00;;
31782;SDS011;18351;47.560;9.708;2023-08-24T02:43:39;21.83;;;14.27;;
31782;SDS011;18351;47.560;9.708;2023-08-24T02:46:06;19.42;;;14.10;;
31782;SDS011;18351;47.560;9.708;2023-08-24T02:48:33;16.58;;;13.15;;
31782;SDS011;18351;47.560;9.708;2023-08-24T02:50:59;21.95;;;14.00;;
31782;SDS011;18351;47.560;9.708;2023-08-24T02:53:26;20.70;;;13.85;;
31782;SDS011;18351;47.560;9.708;2023-08-24T02:55:52;21.13;;;12.73;;
31782;SDS011;18351;47.560;9.708;2023-08-24T02:58:19;19.75;;;14.40;;
31782;SDS011;18351;47.560;9.708;2023-08-24T03:00:44;22.50;;;13.40;;
31782;SDS011;18351;47.560;9.708;2023-08-24T03:03:12;25.40;;;15.45;;
31782;SDS011;18351;47.560;9.708;2023-08-24T03:05:39;21.08;;;13.80;;
31782;SDS011;18351;47.560;9.708;2023-08-24T03:08:05;34.45;;;14.65;;
31782;SDS011;18351;47.560;9.708;2023-08-24T03:10:31;19.83;;;13.93;;
31782;SDS011;18351;47.560;9.708;2023-08-24T03:13:00;22.27;;;12.90;;
31782;SDS011;18351;47.560;9.708;2023-08-24T03:15:25;19.48;;;14.15;;
31782;SDS011;18351;47.560;9.708;2023-08-24T03:17:51;19.40;;;13.57;;
31782;SDS011;18351;47.560;9.708;2023-08-24T03:20:17;14.93;;;11.73;;
31782;SDS011;18351;47.560;9.708;2023-08-24T03:22:43;15.80;;;12.48;;
31782;SDS011;18351;47.560;9.708;2023-08-24T03:25:09;14.50;;;12.15;;
31782;SDS011;18351;47.560;9.708;2023-08-24T03:27:34;17.60;;;12.73;;
31782;SDS011;18351;47.560;9.708;2023-08-24T03:30:00;15.13;;;11.80;;
31782;SDS011;18351;47.560;9.708;2023-08-24T03:32:27;17.48;;;13.02;;
31782;SDS011;18351;47.560;9.708;2023-08-24T03:34:57;21.55;;;12.07;;
31782;SDS011;18351;47.560;9.708;2023-08-24T03:37:24;24.08;;;13.73;;
31782;SDS011;18351;47.560;9.708;2023-08-24T03:39:49;20.38;;;12.68;;
31782;SDS011;18351;47.560;9.708;2023-08-24T03:42:15;18.30;;;13.57;;
31782;SDS011;18351;47.560;9.708;2023-08-24T03:44:40;25.35;;;13.15;;
31782;SDS011;18351;47.560;9.708;2023-08-24T03:47:06;17.98;;;12.20;;
31782;SDS011;18351;47.560;9.708;2023-08-24T03:49:31;16.45;;;12.18;;
31782;SDS011;18351;47.560;9.708;2023-08-24T03:51:57;19.35;;;12.82;;
31782;SDS011;18351;47.560;9.708;2023-08-24T03:54:22;17.40;;;11.63;;
31782;SDS011;18351;47.560;9.708;2023-08-24T03:56:48;24.15;;;11.98;;
31782;SDS011;18351;47.560;9.708;2023-08-24T03:59:13;17.33;;;12.27;;
31782;SDS011;18351;47.560;9.708;2023-08-24T04:01:39;14.88;;;11.27;;
31782;SDS011;18351;47.560;9.708;2023-08-24T04:04:05;15.15;;;10.93;;
31782;SDS011;18351;47.560;9.708;2023-08-24T04:06:30;14.20;;;10.57;;
31782;SDS011;18351;47.560;9.708;2023-08-24T04:08:56;15.40;;;10.90;;
31782;SDS011;18351;47.560;9.708;2023-08-24T04:11:21;14.15;;;10.65;;
31782;SDS011;18351;47.560;9.708;2023-08-24T04:13:47;13.52;;;10.90;;
31782;SDS011;18351;47.560;9.708;2023-08-24T04:16:12;16.55;;;10.95;;
31782;SDS011;18351;47.560;9.708;2023-08-24T04:18:38;13.02;;;10.70;;
31782;SDS011;18351;47.560;9.708;2023-08-24T04:21:05;16.58;;;11.73;;
31782;SDS011;18351;47.560;9.708;2023-08-24T04:23:31;14.52;;;11.27;;
31782;SDS011;18351;47.560;9.708;2023-08-24T04:25:56;16.25;;;11.52;;
31782;SDS011;18351;47.560;9.708;2023-08-24T04:28:22;19.77;;;12.25;;
31782;SDS011;18351;47.560;9.708;2023-08-24T04:30:49;13.35;;;10.65;;
31782;SDS011;18351;47.560;9.708;2023-08-24T04:33:15;14.63;;;11.00;;
31782;SDS011;18351;47.560;9.708;2023-08-24T04:35:41;20.00;;;10.52;;
31782;SDS011;18351;47.560;9.708;2023-08-24T04:38:06;19.92;;;11.25;;
31782;SDS011;18351;47.560;9.708;2023-08-24T04:40:50;16.90;;;11.00;;
31782;SDS011;18351;47.560;9.708;2023-08-24T04:43:17;18.00;;;11.10;;
31782;SDS011;18351;47.560;9.708;2023-08-24T04:45:45;18.20;;;12.82;;
31782;SDS011;18351;47.560;9.708;2023-08-24T04:48:12;15.30;;;11.88;;
31782;SDS011;18351;47.560;9.708;2023-08-24T04:50:37;15.75;;;10.88;;
31782;SDS011;18351;47.560;9.708;2023-08-24T04:53:03;16.27;;;11.98;;
31782;SDS011;18351;47.560;9.708;2023-08-24T04:55:28;22.48;;;12.25;;
31782;SDS011;18351;47.560;9.708;2023-08-24T04:57:54;16.58;;;11.18;;
31782;SDS011;18351;47.560;9.708;2023-08-24T05:00:19;15.70;;;10.65;;
31782;SDS011;18351;47.560;9.708;2023-08-24T05:02:45;17.65;;;11.50;;
31782;SDS011;18351;47.560;9.708;2023-08-24T05:05:10;16.75;;;11.57;;
31782;SDS011;18351;47.560;9.708;2023-08-24T05:07:39;14.73;;;11.25;;
31782;SDS011;18351;47.560;9.708;2023-08-24T05:10:05;16.88;;;11.73;;
31782;SDS011;18351;47.560;9.708;2023-08-24T05:12:31;15.05;;;10.88;;
31782;SDS011;18351;47.560;9.708;2023-08-24T05:14:58;18.35;;;10.73;;
31782;SDS011;18351;47.560;9.708;2023-08-24T05:17:24;13.63;;;10.23;;
31782;SDS011;18351;47.560;9.708;2023-08-24T05:19:51;14.23;;;10.18;;
31782;SDS011;18351;47.560;9.708;2023-08-24T05:22:18;15.43;;;9.70;;
31782;SDS011;18351;47.560;9.708;2023-08-24T05:24:44;15.85;;;10.70;;
31782;SDS011;18351;47.560;9.708;2023-08-24T05:27:09;13.57;;;9.85;;
31782;SDS011;18351;47.560;9.708;2023-08-24T05:29:35;11.43;;;9.32;;
31782;SDS011;18351;47.560;9.708;2023-08-24T05:32:00;12.60;;;9.98;;
31782;SDS011;18351;47.560;9.708;2023-08-24T05:34:26;16.10;;;9.73;;
31782;SDS011;18351;47.560;9.708;2023-08-24T05:36:51;17.38;;;9.93;;
31782;SDS011;18351;47.560;9.708;2023-08-24T05:39:17;17.23;;;8.57;;
31782;SDS011;18351;47.560;9.708;2023-08-24T05:41:42;17.48;;;10.23;;
31782;SDS011;18351;47.560;9.708;2023-08-24T05:44:08;12.30;;;9.55;;
31782;SDS011;18351;47.560;9.708;2023-08-24T05:46:34;14.65;;;9.82;;
31782;SDS011;18351;47.560;9.708;2023-08-24T05:48:59;12.45;;;8.45;;
31782;SDS011;18351;47.560;9.708;2023-08-24T05:51:25;14.13;;;9.18;;
31782;SDS011;18351;47.560;9.708;2023-08-24T05:53:50;16.50;;;9.13;;
31782;SDS011;18351;47.560;9.708;2023-08-24T05:56:20;16.42;;;9.80;;
31782;SDS011;18351;47.560;9.708;2023-08-24T05:58:47;10.15;;;8.52;;
31782;SDS011;18351;47.560;9.708;2023-08-24T06:01:12;17.60;;;9.50;;
31782;SDS011;18351;47.560;9.708;2023-08-24T06:03:38;13.93;;;8.88;;
31782;SDS011;18351;47.560;9.708;2023-08-24T06:06:04;12.68;;;8.60;;
31782;SDS011;18351;47.560;9.708;2023-08-24T06:08:29;12.25;;;8.60;;
31782;SDS011;18351;47.560;9.708;2023-08-24T06:10:56;11.63;;;8.55;;
31782;SDS011;18351;47.560;9.708;2023-08-24T06:13:22;11.65;;;8.82;;
31782;SDS011;18351;47.560;9.708;2023-08-24T06:15:48;12.38;;;8.48;;
31782;SDS011;18351;47.560;9.708;2023-08-24T06:18:13;14.77;;;8.45;;
31782;SDS011;18351;47.560;9.708;2023-08-24T06:20:39;11.77;;;8.45;;
31782;SDS011;18351;47.560;9.708;2023-08-24T06:23:04;14.13;;;8.73;;
31782;SDS011;18351;47.560;9.708;2023-08-24T06:25:30;13.98;;;8.07;;
31782;SDS011;18351;47.560;9.708;2023-08-24T06:27:57;14.60;;;7.57;;
31782;SDS011;18351;47.560;9.708;2023-08-24T06:30:24;15.82;;;9.20;;
31782;SDS011;18351;47.560;9.708;2023-08-24T06:32:50;15.90;;;9.00;;
31782;SDS011;18351;47.560;9.708;2023-08-24T06:35:16;11.02;;;8.00;;
31782;SDS011;18351;47.560;9.708;2023-08-24T06:37:42;17.23;;;7.70;;
31782;SDS011;18351;47.560;9.708;2023-08-24T06:40:08;12.07;;;8.10;;
31782;SDS011;18351;47.560;9.708;2023-08-24T06:42:34;13.85;;;7.75;;
31782;SDS011;18351;47.560;9.708;2023-08-24T06:44:59;21.95;;;8.23;;
31782;SDS011;18351;47.560;9.708;2023-08-24T06:47:25;25.88;;;9.77;;
31782;SDS011;18351;47.560;9.708;2023-08-24T06:49:51;10.68;;;7.90;;
31782;SDS011;18351;47.560;9.708;2023-08-24T06:52:16;16.05;;;8.35;;
31782;SDS011;18351;47.560;9.708;2023-08-24T06:54:42;9.23;;;7.28;;
31782;SDS011;18351;47.560;9.708;2023-08-24T06:57:07;13.55;;;9.23;;
31782;SDS011;18351;47.560;9.708;2023-08-24T06:59:33;13.45;;;8.13;;
31782;SDS011;18351;47.560;9.708;2023-08-24T07:01:58;13.23;;;7.50;;
31782;SDS011;18351;47.560;9.708;2023-08-24T07:04:25;11.35;;;7.38;;
31782;SDS011;18351;47.560;9.708;2023-08-24T07:06:51;11.30;;;7.18;;
31782;SDS011;18351;47.560;9.708;2023-08-24T07:09:17;12.73;;;7.78;;
31782;SDS011;18351;47.560;9.708;2023-08-24T07:11:43;16.02;;;6.82;;
31782;SDS011;18351;47.560;9.708;2023-08-24T07:14:09;11.10;;;6.50;;
31782;SDS011;18351;47.560;9.708;2023-08-24T07:16:35;11.70;;;7.07;;
31782;SDS011;18351;47.560;9.708;2023-08-24T07:19:00;11.93;;;7.18;;
31782;SDS011;18351;47.560;9.708;2023-08-24T07:21:27;12.60;;;6.70;;
31782;SDS011;18351;47.560;9.708;2023-08-24T07:23:52;11.23;;;6.63;;
31782;SDS011;18351;47.560;9.708;2023-08-24T07:26:18;10.05;;;6.10;;
31782;SDS011;18351;47.560;9.708;2023-08-24T07:28:44;14.52;;;6.70;;
31782;SDS011;18351;47.560;9.708;2023-08-24T07:31:10;11.50;;;5.88;;
31782;SDS011;18351;47.560;9.708;2023-08-24T07:33:39;18.77;;;6.55;;
31782;SDS011;18351;47.560;9.708;2023-08-24T07:36:05;12.88;;;6.00;;
31782;SDS011;18351;47.560;9.708;2023-08-24T07:38:31;10.57;;;6.75;;
31782;SDS011;18351;47.560;9.708;2023-08-24T07:40:57;15.18;;;6.20;;
31782;SDS011;18351;47.560;9.708;2023-08-24T07:43:23;15.30;;;6.90;;
31782;SDS011;18351;47.560;9.708;2023-08-24T07:45:49;11.90;;;5.45;;
31782;SDS011;18351;47.560;9.708;2023-08-24T07:48:15;12.38;;;5.75;;
31782;SDS011;18351;47.560;9.708;2023-08-24T07:50:40;14.02;;;5.88;;
31782;SDS011;18351;47.560;9.708;2023-08-24T07:53:06;12.13;;;5.75;;
31782;SDS011;18351;47.560;9.708;2023-08-24T07:55:32;9.88;;;5.72;;
31782;SDS011;18351;47.560;9.708;2023-08-24T07:57:57;14.45;;;6.20;;
31782;SDS011;18351;47.560;9.708;2023-08-24T08:00:23;20.05;;;6.82;;
31782;SDS011;18351;47.560;9.708;2023-08-24T08:02:50;12.50;;;5.90;;
31782;SDS011;18351;47.560;9.708;2023-08-24T08:05:16;11.98;;;6.05;;
31782;SDS011;18351;47.560;9.708;2023-08-24T08:07:42;16.17;;;6.40;;
31782;SDS011;18351;47.560;9.708;2023-08-24T08:10:08;17.73;;;6.95;;
31782;SDS011;18351;47.560;9.708;2023-08-24T08:12:34;17.65;;;6.50;;
31782;SDS011;18351;47.560;9.708;2023-08-24T08:15:00;19.02;;;6.72;;
31782;SDS011;18351;47.560;9.708;2023-08-24T08:17:27;24.70;;;7.28;;
31782;SDS011;18351;47.560;9.708;2023-08-24T08:19:55;13.77;;;7.88;;
31782;SDS011;18351;47.560;9.708;2023-08-24T08:22:23;14.10;;;8.18;;
31782;SDS011;18351;47.560;9.708;2023-08-24T08:24:50;11.85;;;7.88;;
31782;SDS011;18351;47.560;9.708;2023-08-24T08:27:16;12.77;;;7.75;;
31782;SDS011;18351;47.560;9.708;2023-08-24T08:29:41;21.77;;;9.63;;
31782;SDS011;18351;47.560;9.708;2023-08-24T08:32:07;15.73;;;9.88;;
31782;SDS011;18351;47.560;9.708;2023-08-24T08:34:33;12.60;;;8.45;;
31782;SDS011;18351;47.560;9.708;2023-08-24T08:36:59;19.35;;;8.77;;
31782;SDS011;18351;47.560;9.708;2023-08-24T08:39:24;15.63;;;8.27;;
31782;SDS011;18351;47.560;9.708;2023-08-24T08:41:50;13.05;;;7.88;;
31782;SDS011;18351;47.560;9.708;2023-08-24T08:44:15;18.27;;;9.02;;
31782;SDS011;18351;47.560;9.708;2023-08-24T08:46:42;16.67;;;8.75;;
31782;SDS011;18351;47.560;9.708;2023-08-24T08:49:09;15.48;;;8.80;;
31782;SDS011;18351;47.560;9.708;2023-08-24T08:51:37;15.80;;;8.60;;
31782;SDS011;18351;47.560;9.708;2023-08-24T08:54:04;14.88;;;9.00;;
31782;SDS011;18351;47.560;9.708;2023-08-24T08:56:30;16.30;;;7.65;;
31782;SDS011;18351;47.560;9.708;2023-08-24T08:58:57;17.30;;;8.50;;
31782;SDS011;18351;47.560;9.708;2023-08-24T09:01:25;18.85;;;9.10;;
31782;SDS011;18351;47.560;9.708;2023-08-24T09:03:52;15.48;;;10.23;;
31782;SDS011;18351;47.560;9.708;2023-08-24T09:06:19;16.52;;;10.38;;
31782;SDS011;18351;47.560;9.708;2023-08-24T09:08:45;17.55;;;10.10;;
31782;SDS011;18351;47.560;9.708;2023-08-24T09:11:12;14.93;;;9.73;;
31782;SDS011;18351;47.560;9.708;2023-08-24T09:13:39;23.50;;;9.80;;
31782;SDS011;18351;47.560;9.708;2023-08-24T09:16:05;15.68;;;9.93;;
31782;SDS011;18351;47.560;9.708;2023-08-24T09:18:39;11.65;;;9.43;;
31782;SDS011;18351;47.560;9.708;2023-08-24T09:21:08;15.57;;;10.13;;
31782;SDS011;18351;47.560;9.708;2023-08-24T09:23:34;15.10;;;11.18;;
31782;SDS011;18351;47.560;9.708;2023-08-24T09:26:00;13.98;;;10.00;;
31782;SDS011;18351;47.560;9.708;2023-08-24T09:28:26;13.52;;;10.38;;
31782;SDS011;18351;47.560;9.708;2023-08-24T09:30:52;17.20;;;10.82;;
31782;SDS011;18351;47.560;9.708;2023-08-24T09:33:20;14.75;;;9.02;;
31782;SDS011;18351;47.560;9.708;2023-08-24T09:35:51;15.43;;;9.90;;
31782;SDS011;18351;47.560;9.708;2023-08-24T09:38:18;16.40;;;10.77;;
31782;SDS011;18351;47.560;9.708;2023-08-24T09:40:51;14.48;;;8.93;;
31782;SDS011;18351;47.560;9.708;2023-08-24T09:43:21;16.95;;;9.70;;
31782;SDS011;18351;47.560;9.708;2023-08-24T09:45:48;17.35;;;9.80;;
31782;SDS011;18351;47.560;9.708;2023-08-24T09:48:15;14.98;;;11.60;;
31782;SDS011;18351;47.560;9.708;2023-08-24T09:50:42;14.75;;;10.88;;
31782;SDS011;18351;47.560;9.708;2023-08-24T09:53:10;20.55;;;11.60;;
31782;SDS011;18351;47.560;9.708;2023-08-24T09:55:41;15.90;;;10.05;;
31782;SDS011;18351;47.560;9.708;2023-08-24T09:58:15;13.73;;;10.15;;
31782;SDS011;18351;47.560;9.708;2023-08-24T10:00:43;17.23;;;9.95;;
31782;SDS011;18351;47.560;9.708;2023-08-24T10:03:11;16.38;;;10.57;;
31782;SDS011;18351;47.560;9.708;2023-08-24T10:05:41;14.75;;;10.27;;
31782;SDS011;18351;47.560;9.708;2023-08-24T10:08:09;15.98;;;11.23;;
31782;SDS011;18351;47.560;9.708;2023-08-24T10:10:36;15.65;;;9.95;;
31782;SDS011;18351;47.560;9.708;2023-08-24T10:13:06;13.75;;;10.27;;
31782;SDS011;18351;47.560;9.708;2023-08-24T10:15:39;13.63;;;10.10;;
31782;SDS011;18351;47.560;9.708;2023-08-24T10:18:11;14.63;;;10.38;;
31782;SDS011;18351;47.560;9.708;2023-08-24T10:20:38;17.33;;;9.80;;
31782;SDS011;18351;47.560;9.708;2023-08-24T10:23:04;15.05;;;9.60;;
31782;SDS011;18351;47.560;9.708;2023-08-24T10:25:30;15.68;;;11.02;;
31782;SDS011;18351;47.560;9.708;2023-08-24T10:27:57;14.07;;;9.65;;
31782;SDS011;18351;47.560;9.708;2023-08-24T10:30:25;15.02;;;9.48;;
31782;SDS011;18351;47.560;9.708;2023-08-24T10:32:51;19.15;;;10.13;;
31782;SDS011;18351;47.560;9.708;2023-08-24T10:35:19;14.07;;;9.13;;
31782;SDS011;18351;47.560;9.708;2023-08-24T10:37:46;14.50;;;9.02;;
31782;SDS011;18351;47.560;9.708;2023-08-24T10:40:12;18.50;;;8.75;;
31782;SDS011;18351;47.560;9.708;2023-08-24T10:42:44;11.95;;;8.50;;
31782;SDS011;18351;47.560;9.708;2023-08-24T10:45:12;19.98;;;9.10;;
31782;SDS011;18351;47.560;9.708;2023-08-24T10:47:45;11.02;;;8.30;;
31782;SDS011;18351;47.560;9.708;2023-08-24T10:50:11;18.30;;;8.77;;
31782;SDS011;18351;47.560;9.708;2023-08-24T10:52:38;13.90;;;9.00;;
31782;SDS011;18351;47.560;9.708;2023-08-24T10:55:26;15.02;;;8.60;;
31782;SDS011;18351;47.560;9.708;2023-08-24T10:57:56;10.70;;;8.05;;
31782;SDS011;18351;47.560;9.708;2023-08-24T11:00:25;16.52;;;9.95;;
31782;SDS011;18351;47.560;9.708;2023-08-24T11:02:52;11.38;;;8.60;;
31782;SDS011;18351;47.560;9.708;2023-08-24T11:07:56;11.55;;;7.68;;
31782;SDS011;18351;47.560;9.708;2023-08-24T11:10:31;11.80;;;8.18;;
31782;SDS011;18351;47.560;9.708;2023-08-24T11:18:11;14.02;;;8.13;;
31782;SDS011;18351;47.560;9.708;2023-08-24T11:20:36;12.40;;;7.90;;
31782;SDS011;18351;47.560;9.708;2023-08-24T11:23:02;10.73;;;8.05;;
31782;SDS011;18351;47.560;9.708;2023-08-24T11:25:28;15.13;;;8.30;;
31782;SDS011;18351;47.560;9.708;2023-08-24T11:27:54;9.55;;;8.20;;
31782;SDS011;18351;47.560;9.708;2023-08-24T11:30:22;14.63;;;8.35;;
31782;SDS011;18351;47.560;9.708;2023-08-24T11:32:51;14.13;;;7.55;;
31782;SDS011;18351;47.560;9.708;2023-08-24T11:35:18;15.48;;;8.32;;
31782;SDS011;18351;47.560;9.708;2023-08-24T11:37:44;12.18;;;7.55;;
31782;SDS011;18351;47.560;9.708;2023-08-24T11:40:18;10.68;;;7.65;;
31782;SDS011;18351;47.560;9.708;2023-08-24T11:42:45;15.38;;;8.43;;
31782;SDS011;18351;47.560;9.708;2023-08-24T11:45:11;19.02;;;7.90;;
31782;SDS011;18351;47.560;9.708;2023-08-24T11:47:38;14.20;;;8.05;;
31782;SDS011;18351;47.560;9.708;2023-08-24T11:50:03;9.63;;;6.82;;
31782;SDS011;18351;47.560;9.708;2023-08-24T11:52:30;14.02;;;7.70;;
31782;SDS011;18351;47.560;9.708;2023-08-24T11:55:00;15.88;;;7.55;;
31782;SDS011;18351;47.560;9.708;2023-08-24T11:57:25;15.75;;;7.22;;
31782;SDS011;18351;47.560;9.708;2023-08-24T11:59:53;13.70;;;7.88;;
31782;SDS011;18351;47.560;9.708;2023-08-24T12:02:19;15.05;;;6.97;;
31782;SDS011;18351;47.560;9.708;2023-08-24T12:04:48;15.00;;;8.48;;
31782;SDS011;18351;47.560;9.708;2023-08-24T12:07:13;17.42;;;7.60;;
31782;SDS011;18351;47.560;9.708;2023-08-24T12:09:40;12.00;;;6.88;;
31782;SDS011;18351;47.560;9.708;2023-08-24T12:12:11;15.43;;;6.75;;
31782;SDS011;18351;47.560;9.708;2023-08-24T12:14:44;14.40;;;6.75;;
31782;SDS011;18351;47.560;9.708;2023-08-24T12:17:11;17.08;;;7.70;;
31782;SDS011;18351;47.560;9.708;2023-08-24T12:19:40;14.07;;;7.78;;
31782;SDS011;18351;47.560;9.708;2023-08-24T12:22:13;12.20;;;7.28;;
31782;SDS011;18351;47.560;9.708;2023-08-24T12:24:45;13.25;;;7.60;;
31782;SDS011;18351;47.560;9.708;2023-08-24T12:27:18;15.38;;;7.57;;
31782;SDS011;18351;47.560;9.708;2023-08-24T12:29:47;12.10;;;7.00;;
31782;SDS011;18351;47.560;9.708;2023-08-24T12:32:13;14.32;;;7.63;;
31782;SDS011;18351;47.560;9.708;2023-08-24T12:34:41;12.32;;;6.88;;
31782;SDS011;18351;47.560;9.708;2023-08-24T12:37:07;13.13;;;8.27;;
31782;SDS011;18351;47.560;9.708;2023-08-24T12:39:36;19.50;;;7.55;;
31782;SDS011;18351;47.560;9.708;2023-08-24T12:42:03;12.13;;;7.40;;
31782;SDS011;18351;47.560;9.708;2023-08-24T12:44:29;17.13;;;7.90;;
31782;SDS011;18351;47.560;9.708;2023-08-24T12:46:54;15.65;;;7.03;;
31782;SDS011;18351;47.560;9.708;2023-08-24T12:49:20;13.98;;;7.80;;
31782;SDS011;18351;47.560;9.708;2023-08-24T12:51:46;14.88;;;8.55;;
31782;SDS011;18351;47.560;9.708;2023-08-24T12:54:12;15.98;;;7.65;;
31782;SDS011;18351;47.560;9.708;2023-08-24T12:56:38;17.90;;;8.02;;
31782;SDS011;18351;47.560;9.708;2023-08-24T12:59:05;11.15;;;7.75;;
31782;SDS011;18351;47.560;9.708;2023-08-24T13:01:31;9.40;;;7.40;;
31782;SDS011;18351;47.560;9.708;2023-08-24T13:03:57;12.63;;;8.07;;
31782;SDS011;18351;47.560;9.708;2023-08-24T13:06:22;18.83;;;8.07;;
31782;SDS011;18351;47.560;9.708;2023-08-24T13:08:48;12.35;;;7.15;;
31782;SDS011;18351;47.560;9.708;2023-08-24T13:11:13;14.35;;;6.95;;
31782;SDS011;18351;47.560;9.708;2023-08-24T13:13:39;15.55;;;6.57;;
31782;SDS011;18351;47.560;9.708;2023-08-24T13:16:05;12.95;;;7.22;;
31782;SDS011;18351;47.560;9.708;2023-08-24T13:18:31;14.77;;;7.30;;
31782;SDS011;18351;47.560;9.708;2023-08-24T13:20:56;9.65;;;7.32;;
31782;SDS011;18351;47.560;9.708;2023-08-24T13:23:22;14.55;;;7.45;;
31782;SDS011;18351;47.560;9.708;2023-08-24T13:25:47;14.60;;;7.55;;
31782;SDS011;18351;47.560;9.708;2023-08-24T13:28:13;13.48;;;7.28;;
31782;SDS011;18351;47.560;9.708;2023-08-24T13:30:38;10.23;;;7.57;;
31782;SDS011;18351;47.560;9.708;2023-08-24T13:33:05;10.38;;;6.78;;
31782;SDS011;18351;47.560;9.708;2023-08-24T13:35:31;11.60;;;7.75;;
31782;SDS011;18351;47.560;9.708;2023-08-24T13:37:57;13.80;;;7.57;;
31782;SDS011;18351;47.560;9.708;2023-08-24T13:40:23;13.13;;;8.10;;
31782;SDS011;18351;47.560;9.708;2023-08-24T13:42:48;16.02;;;7.32;;
31782;SDS011;18351;47.560;9.708;2023-08-24T13:45:14;19.27;;;8.23;;
31782;SDS011;18351;47.560;9.708;2023-08-24T13:47:40;13.80;;;7.95;;
31782;SDS011;18351;47.560;9.708;2023-08-24T13:50:06;13.27;;;8.20;;
31782;SDS011;18351;47.560;9.708;2023-08-24T13:52:33;15.38;;;8.57;;
31782;SDS011;18351;47.560;9.708;2023-08-24T13:54:58;12.07;;;7.82;;
31782;SDS011;18351;47.560;9.708;2023-08-24T13:57:24;12.30;;;7.25;;
31782;SDS011;18351;47.560;9.708;2023-08-24T13:59:49;14.73;;;7.55;;
31782;SDS011;18351;47.560;9.708;2023-08-24T14:02:15;14.27;;;7.95;;
31782;SDS011;18351;47.560;9.708;2023-08-24T14:04:41;17.88;;;7.80;;
31782;SDS011;18351;47.560;9.708;2023-08-24T14:07:06;14.05;;;7.38;;
31782;SDS011;18351;47.560;9.708;2023-08-24T14:09:32;11.73;;;7.50;;
31782;SDS011;18351;47.560;9.708;2023-08-24T14:11:58;11.73;;;6.93;;
31782;SDS011;18351;47.560;9.708;2023-08-24T14:14:23;14.13;;;6.72;;
31782;SDS011;18351;47.560;9.708;2023-08-24T14:16:55;15.10;;;7.47;;
31782;SDS011;18351;47.560;9.708;2023-08-24T14:19:21;12.75;;;7.22;;
31782;SDS011;18351;47.560;9.708;2023-08-24T14:21:48;13.40;;;6.97;;
31782;SDS011;18351;47.560;9.708;2023-08-24T14:24:13;10.45;;;7.25;;
31782;SDS011;18351;47.560;9.708;2023-08-24T14:26:39;10.43;;;6.80;;
31782;SDS011;18351;47.560;9.708;2023-08-24T14:29:10;15.48;;;7.50;;
31782;SDS011;18351;47.560;9.708;2023-08-24T14:31:36;12.93;;;6.97;;
31782;SDS011;18351;47.560;9.708;2023-08-24T14:34:01;22.85;;;7.90;;
31782;SDS011;18351;47.560;9.708;2023-08-24T14:36:28;13.73;;;7.00;;
31782;SDS011;18351;47.560;9.708;2023-08-24T14:38:54;12.60;;;7.10;;
31782;SDS011;18351;47.560;9.708;2023-08-24T14:41:19;24.17;;;7.68;;